Saturday, February 13, 2016, 4:10 PM EST

KNHK, Nas Patuxent River Md

Location: Patuxent River, MD, United States Lat: 38.3
Local Time: 4:10 PM EST (21:10 GMT) Lon: -76.4
Time Zone: US/Eastern Elev: 39 ft

Show me the last for .
Show Decoded

2016-02-13 15:52 METAR KNHK 132052Z 31021G30KT 10SM SCT070 M04/M20 A3028 RMK AO2 PK WND
                 33032/2038 SLP254 T10441200 53014 $ =
2016-02-13 14:52 METAR KNHK 131952Z 29024G31KT 10SM BKN070 M04/M21 A3027 RMK AO2 PK WND
                 32032/1922 SLP249 T10441206 $ =
2016-02-13 13:52 METAR KNHK 131852Z 30023G31KT 10SM SCT060 M04/M19 A3025 RMK AO2 PK WND
                 34033/1807 SLP244 T10441194 $ =
2016-02-13 12:52 METAR KNHK 131752Z 32021G31KT 10SM FEW035 SCT060 M04/M18 A3024 RMK AO2 PK WND
                 31036/1707 SLP240 T10391183 11033 21056 50005 $ =
2016-02-13 11:52 METAR KNHK 131652Z 30021G31KT 10SM FEW045 BKN060 M03/M19 A3024 RMK AO2 PK WND
                 32034/1633 SLP241 T10331194 $ =
2016-02-13 10:52 METAR KNHK 131552Z 32022G29KT 10SM FEW025 BKN044 BKN055 M05/M14 A3024 RMK AO2 PK
                 WND 33030/1537 SLP240 T10501139 $ =
2016-02-13 09:52 METAR KNHK 131452Z 34017G28KT 10SM FEW025 BKN050 M05/M13 A3022 RMK AO2 PK WND
                 32029/1358 SLP234 VIRGA N T10501128 51026 $ =
2016-02-13 08:52 METAR KNHK 131352Z 33021G27KT 10SM FEW025 BKN050 M04/M16 A3020 RMK AO2 PK WND
                 33027/1351 SLP228 T10441156 $ =
2016-02-13 07:52 METAR KNHK 131252Z 30017G24KT 10SM FEW025 SCT040 M05/M16 A3018 RMK AO2 PK WND
                 31026/1214 SLP220 VIRGA NW T10501156 $ =
2016-02-13 07:04 METAR KNHK 131204Z 29016G22KT 10SM FEW025 SCT040 M06/M16 A3016 RMK AO2 T10561161
                 $ =
2016-02-13 06:52 METAR KNHK 131152Z AUTO 30013G24KT 10SM CLR M05/M16 A3015 RMK AO2 PK WND
                 32032/1111 SLP208 T10501161 11028 21050 53040 PWINO FZRANO $ =
2016-02-13 05:52 METAR KNHK 131052Z AUTO 30020G32KT 10SM CLR M04/M16 A3009 RMK AO2 PK WND
                 31032/1043 SLP190 T10441156 PWINO FZRANO $ =
2016-02-13 04:52 METAR KNHK 130952Z AUTO 30018G29KT 10SM BKN060 OVC070 M03/M12 A3005 RMK AO2 PK
                 WND 31030/0938 SLP177 T10331122 PWINO FZRANO $ =
2016-02-13 03:52 METAR KNHK 130852Z AUTO 30019G31KT 10SM FEW037 BKN055 BKN070 M03/M09 A3003 RMK
                 AO2 PK WND 33031/0848 SLP168 T10281094 53006 PWINO FZRANO $ =
2016-02-13 02:52 METAR KNHK 130752Z AUTO 29010KT 10SM SCT090 M03/M10 A3000 RMK AO2 SLP160
                 T10331100 PWINO FZRANO $ =
2016-02-13 01:52 METAR KNHK 130652Z AUTO 28006KT 10SM FEW090 M04/M10 A3000 RMK AO2 SLP159
                 T10441100 PWINO FZRANO $ =
2016-02-13 00:52 METAR KNHK 130552Z AUTO 31008KT 10SM OVC080 M03/M09 A3001 RMK AO2 SLP162
                 T10281089 11028 21044 53001 PWINO FZRANO $ =
2016-02-12 23:52 METAR KNHK 130452Z AUTO 28005KT 10SM OVC075 M03/M07 A3001 RMK AO2 SLP161
                 T10281072 410111072 PWINO FZRANO $ =
2016-02-12 22:52 METAR KNHK 130352Z 24004KT 10SM FEW060 BKN080 BKN110 M04/M08 A3001 RMK AO2
                 SLP161 T10391078 $ =
2016-02-12 21:52 METAR KNHK 130252Z 22003KT 10SM FEW060 SCT085 OVC120 M03/M08 A3001 RMK AO2
                 SLP161 T10331078 58003 $ =
2016-02-12 20:52 METAR KNHK 130152Z 22004KT 10SM FEW055 SCT080 OVC110 M03/M08 A3001 RMK AO2
                 SLP162 T10281083 $ =
2016-02-12 19:52 METAR KNHK 130052Z 23004KT 10SM FEW055 BKN080 OVC110 M03/M09 A3001 RMK AO2
                 SLP164 T10281089 $ =
2016-02-12 18:52 METAR KNHK 122352Z 14003KT 10SM FEW055 BKN075 OVC110 M03/M08 A3001 RMK AO2
                 SLP164 T10281083 11011 21033 56013 $ =
2016-02-12 17:52 METAR KNHK 122252Z 14005KT 10SM SCT055 OVC070 M03/M11 A3003 RMK AO2 SLP168
                 T10281106 $ =
2016-02-12 16:52 METAR KNHK 122152Z 15006KT 10SM BKN055 BKN070 OVC090 M03/M11 A3003 RMK AO2
                 SLP170 T10281106 $ =

Support USWX by starting your Amazon purchase here.